sensor_id;sensor_type;location;lat;lon;timestamp;P1;durP1;ratioP1;P2;durP2;ratioP2
56255;SDS011;57229;51.432;-2.598;2022-11-15T00:01:52;5.03;;;2.55;;
56255;SDS011;57229;51.432;-2.598;2022-11-15T00:04:39;4.47;;;2.47;;
56255;SDS011;57229;51.432;-2.598;2022-11-15T00:07:04;4.93;;;2.70;;
56255;SDS011;57229;51.432;-2.598;2022-11-15T00:09:37;9.73;;;2.80;;
56255;SDS011;57229;51.432;-2.598;2022-11-15T00:12:03;5.65;;;2.35;;
56255;SDS011;57229;51.432;-2.598;2022-11-15T00:14:33;5.43;;;2.50;;
56255;SDS011;57229;51.432;-2.598;2022-11-15T00:16:59;5.57;;;2.70;;
56255;SDS011;57229;51.432;-2.598;2022-11-15T00:19:29;6.35;;;2.80;;
56255;SDS011;57229;51.432;-2.598;2022-11-15T00:21:56;4.93;;;2.40;;
56255;SDS011;57229;51.432;-2.598;2022-11-15T00:24:45;5.10;;;2.42;;
56255;SDS011;57229;51.432;-2.598;2022-11-15T00:27:15;6.75;;;2.97;;
56255;SDS011;57229;51.432;-2.598;2022-11-15T00:29:45;6.05;;;2.67;;
56255;SDS011;57229;51.432;-2.598;2022-11-15T00:32:14;5.18;;;2.60;;
56255;SDS011;57229;51.432;-2.598;2022-11-15T00:34:41;5.47;;;2.58;;
56255;SDS011;57229;51.432;-2.598;2022-11-15T00:37:54;5.40;;;2.60;;
56255;SDS011;57229;51.432;-2.598;2022-11-15T00:40:20;6.72;;;2.90;;
56255;SDS011;57229;51.432;-2.598;2022-11-15T00:42:46;5.60;;;2.72;;
56255;SDS011;57229;51.432;-2.598;2022-11-15T00:45:12;5.38;;;2.42;;
56255;SDS011;57229;51.432;-2.598;2022-11-15T00:47:47;4.38;;;2.60;;
56255;SDS011;57229;51.432;-2.598;2022-11-15T00:50:23;4.28;;;2.50;;
56255;SDS011;57229;51.432;-2.598;2022-11-15T00:52:53;4.00;;;2.40;;
56255;SDS011;57229;51.432;-2.598;2022-11-15T00:55:19;5.05;;;2.42;;
56255;SDS011;57229;51.432;-2.598;2022-11-15T00:57:47;5.32;;;2.58;;
56255;SDS011;57229;51.432;-2.598;2022-11-15T01:00:43;3.97;;;2.63;;
56255;SDS011;57229;51.432;-2.598;2022-11-15T01:03:13;5.18;;;2.30;;
56255;SDS011;57229;51.432;-2.598;2022-11-15T01:05:47;5.20;;;2.67;;
56255;SDS011;57229;51.432;-2.598;2022-11-15T01:08:14;3.65;;;2.30;;
56255;SDS011;57229;51.432;-2.598;2022-11-15T01:10:49;3.97;;;2.50;;
56255;SDS011;57229;51.432;-2.598;2022-11-15T01:13:16;8.45;;;2.70;;
56255;SDS011;57229;51.432;-2.598;2022-11-15T01:15:42;3.67;;;2.30;;
56255;SDS011;57229;51.432;-2.598;2022-11-15T01:18:18;3.88;;;2.60;;
56255;SDS011;57229;51.432;-2.598;2022-11-15T01:21:16;5.60;;;2.30;;
56255;SDS011;57229;51.432;-2.598;2022-11-15T01:23:53;6.00;;;2.72;;
56255;SDS011;57229;51.432;-2.598;2022-11-15T01:26:25;4.57;;;2.55;;
56255;SDS011;57229;51.432;-2.598;2022-11-15T01:28:54;7.43;;;2.55;;
56255;SDS011;57229;51.432;-2.598;2022-11-15T01:31:20;5.18;;;2.47;;
56255;SDS011;57229;51.432;-2.598;2022-11-15T01:33:46;4.78;;;2.72;;
56255;SDS011;57229;51.432;-2.598;2022-11-15T01:39:07;4.60;;;2.50;;
56255;SDS011;57229;51.432;-2.598;2022-11-15T01:41:33;4.45;;;2.80;;
56255;SDS011;57229;51.432;-2.598;2022-11-15T01:47:23;6.32;;;2.50;;
56255;SDS011;57229;51.432;-2.598;2022-11-15T01:52:41;5.00;;;2.60;;
56255;SDS011;57229;51.432;-2.598;2022-11-15T01:55:09;5.53;;;2.67;;
56255;SDS011;57229;51.432;-2.598;2022-11-15T01:57:43;5.28;;;2.20;;
56255;SDS011;57229;51.432;-2.598;2022-11-15T02:00:23;3.00;;;2.22;;
56255;SDS011;57229;51.432;-2.598;2022-11-15T02:03:07;6.28;;;2.90;;
56255;SDS011;57229;51.432;-2.598;2022-11-15T02:05:43;6.35;;;2.58;;
56255;SDS011;57229;51.432;-2.598;2022-11-15T02:08:20;5.35;;;2.75;;
56255;SDS011;57229;51.432;-2.598;2022-11-15T02:10:50;5.68;;;2.78;;
56255;SDS011;57229;51.432;-2.598;2022-11-15T02:13:55;2.85;;;2.30;;
56255;SDS011;57229;51.432;-2.598;2022-11-15T02:16:46;4.38;;;2.30;;
56255;SDS011;57229;51.432;-2.598;2022-11-15T02:23:42;8.13;;;2.70;;
56255;SDS011;57229;51.432;-2.598;2022-11-15T02:26:43;5.40;;;2.50;;
56255;SDS011;57229;51.432;-2.598;2022-11-15T02:38:22;3.70;;;2.38;;
56255;SDS011;57229;51.432;-2.598;2022-11-15T02:41:40;3.78;;;2.30;;
56255;SDS011;57229;51.432;-2.598;2022-11-15T02:44:15;5.47;;;2.53;;
56255;SDS011;57229;51.432;-2.598;2022-11-15T02:46:57;4.55;;;2.38;;
56255;SDS011;57229;51.432;-2.598;2022-11-15T02:49:52;5.85;;;2.70;;
56255;SDS011;57229;51.432;-2.598;2022-11-15T02:52:50;3.70;;;2.22;;
56255;SDS011;57229;51.432;-2.598;2022-11-15T02:55:44;4.80;;;2.40;;
56255;SDS011;57229;51.432;-2.598;2022-11-15T03:04:04;5.35;;;2.30;;
56255;SDS011;57229;51.432;-2.598;2022-11-15T03:06:55;3.35;;;2.45;;
56255;SDS011;57229;51.432;-2.598;2022-11-15T03:09:33;4.53;;;2.25;;
56255;SDS011;57229;51.432;-2.598;2022-11-15T03:12:22;3.13;;;2.40;;
56255;SDS011;57229;51.432;-2.598;2022-11-15T03:14:54;3.88;;;2.53;;
56255;SDS011;57229;51.432;-2.598;2022-11-15T03:17:47;6.10;;;2.60;;
56255;SDS011;57229;51.432;-2.598;2022-11-15T03:20:25;5.65;;;2.50;;
56255;SDS011;57229;51.432;-2.598;2022-11-15T03:22:53;4.30;;;2.50;;
56255;SDS011;57229;51.432;-2.598;2022-11-15T03:25:24;5.82;;;2.40;;
56255;SDS011;57229;51.432;-2.598;2022-11-15T03:27:52;3.72;;;2.40;;
56255;SDS011;57229;51.432;-2.598;2022-11-15T03:30:22;3.40;;;2.30;;
56255;SDS011;57229;51.432;-2.598;2022-11-15T03:32:53;2.85;;;2.30;;
56255;SDS011;57229;51.432;-2.598;2022-11-15T03:35:22;3.97;;;2.22;;
56255;SDS011;57229;51.432;-2.598;2022-11-15T03:41:03;3.97;;;2.33;;
56255;SDS011;57229;51.432;-2.598;2022-11-15T03:44:08;3.80;;;2.30;;
56255;SDS011;57229;51.432;-2.598;2022-11-15T03:46:32;2.78;;;2.17;;
56255;SDS011;57229;51.432;-2.598;2022-11-15T03:49:06;2.28;;;2.00;;
56255;SDS011;57229;51.432;-2.598;2022-11-15T03:51:35;2.88;;;1.98;;
56255;SDS011;57229;51.432;-2.598;2022-11-15T03:54:04;2.47;;;2.15;;
56255;SDS011;57229;51.432;-2.598;2022-11-15T03:56:30;2.38;;;2.17;;
56255;SDS011;57229;51.432;-2.598;2022-11-15T03:58:56;3.95;;;2.20;;
56255;SDS011;57229;51.432;-2.598;2022-11-15T04:01:21;3.55;;;2.08;;
56255;SDS011;57229;51.432;-2.598;2022-11-15T04:03:47;3.05;;;2.05;;
56255;SDS011;57229;51.432;-2.598;2022-11-15T04:06:13;3.10;;;2.10;;
56255;SDS011;57229;51.432;-2.598;2022-11-15T04:08:38;3.05;;;1.95;;
56255;SDS011;57229;51.432;-2.598;2022-11-15T04:11:04;2.42;;;2.10;;
56255;SDS011;57229;51.432;-2.598;2022-11-15T04:13:30;2.95;;;2.20;;
56255;SDS011;57229;51.432;-2.598;2022-11-15T04:15:55;3.45;;;2.10;;
56255;SDS011;57229;51.432;-2.598;2022-11-15T04:18:21;2.33;;;2.03;;
56255;SDS011;57229;51.432;-2.598;2022-11-15T04:20:47;2.33;;;2.10;;
56255;SDS011;57229;51.432;-2.598;2022-11-15T04:23:32;3.08;;;2.10;;
56255;SDS011;57229;51.432;-2.598;2022-11-15T04:26:16;2.17;;;1.98;;
56255;SDS011;57229;51.432;-2.598;2022-11-15T04:28:44;2.00;;;1.90;;
56255;SDS011;57229;51.432;-2.598;2022-11-15T04:31:29;2.72;;;1.90;;
56255;SDS011;57229;51.432;-2.598;2022-11-15T04:33:55;2.35;;;2.00;;
56255;SDS011;57229;51.432;-2.598;2022-11-15T04:36:21;2.22;;;1.83;;
56255;SDS011;57229;51.432;-2.598;2022-11-15T04:39:05;2.00;;;1.80;;
56255;SDS011;57229;51.432;-2.598;2022-11-15T04:41:32;2.25;;;1.90;;
56255;SDS011;57229;51.432;-2.598;2022-11-15T04:43:58;2.35;;;1.90;;
56255;SDS011;57229;51.432;-2.598;2022-11-15T04:46:27;2.28;;;2.08;;
56255;SDS011;57229;51.432;-2.598;2022-11-15T04:48:53;2.30;;;1.80;;
56255;SDS011;57229;51.432;-2.598;2022-11-15T04:51:20;2.33;;;1.95;;
56255;SDS011;57229;51.432;-2.598;2022-11-15T04:53:55;2.25;;;1.85;;
56255;SDS011;57229;51.432;-2.598;2022-11-15T04:57:17;2.10;;;2.00;;
56255;SDS011;57229;51.432;-2.598;2022-11-15T04:59:43;2.70;;;1.80;;
56255;SDS011;57229;51.432;-2.598;2022-11-15T05:02:09;2.05;;;1.95;;
56255;SDS011;57229;51.432;-2.598;2022-11-15T05:04:34;2.08;;;1.95;;
56255;SDS011;57229;51.432;-2.598;2022-11-15T05:07:00;1.70;;;1.60;;
56255;SDS011;57229;51.432;-2.598;2022-11-15T05:09:27;2.40;;;1.83;;
56255;SDS011;57229;51.432;-2.598;2022-11-15T05:11:52;1.95;;;1.80;;
56255;SDS011;57229;51.432;-2.598;2022-11-15T05:14:18;2.35;;;1.77;;
56255;SDS011;57229;51.432;-2.598;2022-11-15T05:16:44;1.90;;;1.80;;
56255;SDS011;57229;51.432;-2.598;2022-11-15T05:19:10;2.33;;;1.90;;
56255;SDS011;57229;51.432;-2.598;2022-11-15T05:21:36;2.10;;;2.00;;
56255;SDS011;57229;51.432;-2.598;2022-11-15T05:24:02;2.10;;;1.90;;
56255;SDS011;57229;51.432;-2.598;2022-11-15T05:26:35;2.05;;;1.85;;
56255;SDS011;57229;51.432;-2.598;2022-11-15T05:29:05;2.00;;;1.90;;
56255;SDS011;57229;51.432;-2.598;2022-11-15T05:31:31;2.05;;;1.90;;
56255;SDS011;57229;51.432;-2.598;2022-11-15T05:34:04;1.80;;;1.70;;
56255;SDS011;57229;51.432;-2.598;2022-11-15T05:36:37;2.15;;;1.95;;
56255;SDS011;57229;51.432;-2.598;2022-11-15T05:39:07;1.80;;;1.70;;
56255;SDS011;57229;51.432;-2.598;2022-11-15T05:41:35;3.05;;;1.90;;
56255;SDS011;57229;51.432;-2.598;2022-11-15T05:44:05;2.15;;;1.80;;
56255;SDS011;57229;51.432;-2.598;2022-11-15T05:46:34;1.98;;;1.70;;
56255;SDS011;57229;51.432;-2.598;2022-11-15T05:49:02;2.00;;;1.90;;
56255;SDS011;57229;51.432;-2.598;2022-11-15T05:51:31;2.17;;;1.80;;
56255;SDS011;57229;51.432;-2.598;2022-11-15T05:53:57;1.80;;;1.70;;
56255;SDS011;57229;51.432;-2.598;2022-11-15T05:56:25;4.70;;;1.75;;
56255;SDS011;57229;51.432;-2.598;2022-11-15T05:58:52;2.15;;;1.88;;
56255;SDS011;57229;51.432;-2.598;2022-11-15T06:01:20;1.88;;;1.77;;
56255;SDS011;57229;51.432;-2.598;2022-11-15T06:03:46;1.90;;;1.80;;
56255;SDS011;57229;51.432;-2.598;2022-11-15T06:06:12;2.00;;;1.80;;
56255;SDS011;57229;51.432;-2.598;2022-11-15T06:08:37;2.47;;;1.80;;
56255;SDS011;57229;51.432;-2.598;2022-11-15T06:11:07;1.80;;;1.70;;
56255;SDS011;57229;51.432;-2.598;2022-11-15T06:13:33;2.22;;;1.83;;
56255;SDS011;57229;51.432;-2.598;2022-11-15T06:15:59;2.20;;;2.00;;
56255;SDS011;57229;51.432;-2.598;2022-11-15T06:18:25;2.72;;;1.85;;
56255;SDS011;57229;51.432;-2.598;2022-11-15T06:20:51;1.80;;;1.70;;
56255;SDS011;57229;51.432;-2.598;2022-11-15T06:23:20;2.00;;;1.80;;
56255;SDS011;57229;51.432;-2.598;2022-11-15T06:25:49;1.70;;;1.60;;
56255;SDS011;57229;51.432;-2.598;2022-11-15T06:28:15;1.80;;;1.70;;
56255;SDS011;57229;51.432;-2.598;2022-11-15T06:30:41;2.10;;;1.90;;
56255;SDS011;57229;51.432;-2.598;2022-11-15T06:33:07;1.70;;;1.60;;
56255;SDS011;57229;51.432;-2.598;2022-11-15T06:35:34;1.80;;;1.70;;
56255;SDS011;57229;51.432;-2.598;2022-11-15T06:38:02;1.70;;;1.60;;
56255;SDS011;57229;51.432;-2.598;2022-11-15T06:40:43;1.65;;;1.50;;
56255;SDS011;57229;51.432;-2.598;2022-11-15T06:43:10;2.13;;;1.80;;
56255;SDS011;57229;51.432;-2.598;2022-11-15T06:45:38;2.20;;;2.00;;
56255;SDS011;57229;51.432;-2.598;2022-11-15T06:48:13;1.98;;;1.50;;
56255;SDS011;57229;51.432;-2.598;2022-11-15T06:50:40;1.60;;;1.50;;
56255;SDS011;57229;51.432;-2.598;2022-11-15T06:53:06;2.03;;;1.80;;
56255;SDS011;57229;51.432;-2.598;2022-11-15T06:55:32;1.80;;;1.70;;
56255;SDS011;57229;51.432;-2.598;2022-11-15T06:58:07;2.10;;;2.00;;
56255;SDS011;57229;51.432;-2.598;2022-11-15T07:00:34;1.98;;;1.88;;
56255;SDS011;57229;51.432;-2.598;2022-11-15T07:03:00;2.55;;;1.80;;
56255;SDS011;57229;51.432;-2.598;2022-11-15T07:05:29;2.10;;;1.80;;
56255;SDS011;57229;51.432;-2.598;2022-11-15T07:07:56;2.17;;;1.77;;
56255;SDS011;57229;51.432;-2.598;2022-11-15T07:10:23;1.70;;;1.60;;
56255;SDS011;57229;51.432;-2.598;2022-11-15T07:12:53;2.22;;;1.58;;
56255;SDS011;57229;51.432;-2.598;2022-11-15T07:15:22;1.95;;;1.75;;
56255;SDS011;57229;51.432;-2.598;2022-11-15T07:17:50;3.17;;;1.77;;
56255;SDS011;57229;51.432;-2.598;2022-11-15T07:20:16;4.43;;;1.88;;
56255;SDS011;57229;51.432;-2.598;2022-11-15T07:22:43;1.80;;;1.70;;
56255;SDS011;57229;51.432;-2.598;2022-11-15T07:25:12;2.25;;;1.60;;
56255;SDS011;57229;51.432;-2.598;2022-11-15T07:27:38;1.85;;;1.75;;
56255;SDS011;57229;51.432;-2.598;2022-11-15T07:30:04;2.35;;;1.63;;
56255;SDS011;57229;51.432;-2.598;2022-11-15T07:32:30;2.10;;;1.90;;
56255;SDS011;57229;51.432;-2.598;2022-11-15T07:34:56;1.88;;;1.77;;
56255;SDS011;57229;51.432;-2.598;2022-11-15T07:37:21;2.13;;;1.92;;
56255;SDS011;57229;51.432;-2.598;2022-11-15T07:39:47;1.88;;;1.77;;
56255;SDS011;57229;51.432;-2.598;2022-11-15T07:42:13;1.92;;;1.70;;
56255;SDS011;57229;51.432;-2.598;2022-11-15T07:44:57;1.92;;;1.70;;
56255;SDS011;57229;51.432;-2.598;2022-11-15T07:47:23;2.40;;;1.70;;
56255;SDS011;57229;51.432;-2.598;2022-11-15T07:49:48;3.10;;;1.80;;
56255;SDS011;57229;51.432;-2.598;2022-11-15T07:52:14;2.33;;;1.92;;
56255;SDS011;57229;51.432;-2.598;2022-11-15T07:54:40;2.45;;;1.75;;
56255;SDS011;57229;51.432;-2.598;2022-11-15T07:57:06;1.92;;;1.80;;
56255;SDS011;57229;51.432;-2.598;2022-11-15T07:59:34;1.80;;;1.70;;
56255;SDS011;57229;51.432;-2.598;2022-11-15T08:02:00;2.33;;;1.80;;
56255;SDS011;57229;51.432;-2.598;2022-11-15T08:04:25;1.98;;;1.80;;
56255;SDS011;57229;51.432;-2.598;2022-11-15T08:06:51;2.03;;;1.88;;
56255;SDS011;57229;51.432;-2.598;2022-11-15T08:09:17;1.88;;;1.75;;
56255;SDS011;57229;51.432;-2.598;2022-11-15T08:11:42;1.80;;;1.70;;
56255;SDS011;57229;51.432;-2.598;2022-11-15T08:14:08;1.80;;;1.70;;
56255;SDS011;57229;51.432;-2.598;2022-11-15T08:16:34;1.75;;;1.65;;
56255;SDS011;57229;51.432;-2.598;2022-11-15T08:18:59;2.10;;;1.92;;
56255;SDS011;57229;51.432;-2.598;2022-11-15T08:21:25;2.55;;;2.05;;
56255;SDS011;57229;51.432;-2.598;2022-11-15T08:23:51;3.70;;;2.10;;
56255;SDS011;57229;51.432;-2.598;2022-11-15T08:26:16;2.25;;;1.90;;
56255;SDS011;57229;51.432;-2.598;2022-11-15T08:28:42;4.65;;;1.90;;
56255;SDS011;57229;51.432;-2.598;2022-11-15T08:31:13;5.90;;;1.73;;
56255;SDS011;57229;51.432;-2.598;2022-11-15T08:33:41;6.10;;;1.83;;
56255;SDS011;57229;51.432;-2.598;2022-11-15T08:36:10;5.53;;;2.08;;
56255;SDS011;57229;51.432;-2.598;2022-11-15T08:38:39;3.88;;;1.90;;
56255;SDS011;57229;51.432;-2.598;2022-11-15T08:41:04;5.18;;;2.03;;
56255;SDS011;57229;51.432;-2.598;2022-11-15T08:43:31;2.20;;;2.10;;
56255;SDS011;57229;51.432;-2.598;2022-11-15T08:45:57;2.78;;;2.00;;
56255;SDS011;57229;51.432;-2.598;2022-11-15T08:48:24;4.53;;;1.88;;
56255;SDS011;57229;51.432;-2.598;2022-11-15T08:50:54;4.82;;;2.05;;
56255;SDS011;57229;51.432;-2.598;2022-11-15T08:53:20;2.67;;;1.70;;
56255;SDS011;57229;51.432;-2.598;2022-11-15T08:55:46;1.75;;;1.65;;
56255;SDS011;57229;51.432;-2.598;2022-11-15T08:58:11;3.30;;;1.70;;
56255;SDS011;57229;51.432;-2.598;2022-11-15T09:00:37;4.45;;;1.80;;
56255;SDS011;57229;51.432;-2.598;2022-11-15T09:03:03;2.70;;;2.00;;
56255;SDS011;57229;51.432;-2.598;2022-11-15T09:05:30;10.32;;;1.95;;
56255;SDS011;57229;51.432;-2.598;2022-11-15T09:07:56;7.15;;;2.05;;
56255;SDS011;57229;51.432;-2.598;2022-11-15T09:10:22;4.25;;;1.70;;
56255;SDS011;57229;51.432;-2.598;2022-11-15T09:12:48;2.38;;;1.80;;
56255;SDS011;57229;51.432;-2.598;2022-11-15T09:15:14;5.15;;;1.88;;
56255;SDS011;57229;51.432;-2.598;2022-11-15T09:17:41;3.55;;;1.98;;
56255;SDS011;57229;51.432;-2.598;2022-11-15T09:20:07;2.20;;;1.67;;
56255;SDS011;57229;51.432;-2.598;2022-11-15T09:22:34;2.95;;;1.70;;
56255;SDS011;57229;51.432;-2.598;2022-11-15T09:25:01;2.00;;;1.80;;
56255;SDS011;57229;51.432;-2.598;2022-11-15T09:27:28;1.70;;;1.60;;
56255;SDS011;57229;51.432;-2.598;2022-11-15T09:29:54;3.08;;;1.80;;
56255;SDS011;57229;51.432;-2.598;2022-11-15T09:32:20;3.22;;;1.90;;
56255;SDS011;57229;51.432;-2.598;2022-11-15T09:34:47;2.80;;;1.75;;
56255;SDS011;57229;51.432;-2.598;2022-11-15T09:37:12;3.75;;;2.00;;
56255;SDS011;57229;51.432;-2.598;2022-11-15T09:39:38;5.00;;;1.80;;
56255;SDS011;57229;51.432;-2.598;2022-11-15T09:45:05;3.25;;;2.17;;
56255;SDS011;57229;51.432;-2.598;2022-11-15T09:50:41;2.60;;;1.90;;
56255;SDS011;57229;51.432;-2.598;2022-11-15T09:53:19;1.90;;;1.80;;
56255;SDS011;57229;51.432;-2.598;2022-11-15T09:55:53;3.53;;;1.92;;
56255;SDS011;57229;51.432;-2.598;2022-11-15T10:04:31;5.15;;;2.20;;
56255;SDS011;57229;51.432;-2.598;2022-11-15T10:12:14;2.65;;;1.92;;
56255;SDS011;57229;51.432;-2.598;2022-11-15T10:14:41;1.98;;;1.88;;
56255;SDS011;57229;51.432;-2.598;2022-11-15T10:19:50;3.08;;;1.80;;
56255;SDS011;57229;51.432;-2.598;2022-11-15T10:22:32;2.37;;;1.80;;
56255;SDS011;57229;51.432;-2.598;2022-11-15T10:25:18;3.22;;;2.10;;
56255;SDS011;57229;51.432;-2.598;2022-11-15T10:27:50;3.58;;;2.00;;
56255;SDS011;57229;51.432;-2.598;2022-11-15T10:30:30;3.90;;;1.90;;
56255;SDS011;57229;51.432;-2.598;2022-11-15T10:32:58;3.20;;;2.13;;
56255;SDS011;57229;51.432;-2.598;2022-11-15T10:35:34;3.78;;;1.92;;
56255;SDS011;57229;51.432;-2.598;2022-11-15T10:38:04;4.97;;;2.17;;
56255;SDS011;57229;51.432;-2.598;2022-11-15T10:40:34;2.17;;;2.08;;
56255;SDS011;57229;51.432;-2.598;2022-11-15T10:45:36;3.15;;;2.03;;
56255;SDS011;57229;51.432;-2.598;2022-11-15T10:50:38;2.23;;;1.60;;
56255;SDS011;57229;51.432;-2.598;2022-11-15T10:55:47;2.70;;;2.13;;
56255;SDS011;57229;51.432;-2.598;2022-11-15T10:58:49;3.78;;;2.60;;
56255;SDS011;57229;51.432;-2.598;2022-11-15T11:03:39;6.47;;;2.50;;
56255;SDS011;57229;51.432;-2.598;2022-11-15T11:06:08;5.35;;;2.30;;
56255;SDS011;57229;51.432;-2.598;2022-11-15T11:11:50;8.48;;;2.55;;
56255;SDS011;57229;51.432;-2.598;2022-11-15T11:17:02;4.70;;;2.65;;
56255;SDS011;57229;51.432;-2.598;2022-11-15T11:33:33;4.57;;;2.15;;
56255;SDS011;57229;51.432;-2.598;2022-11-15T11:39:15;4.43;;;2.40;;
56255;SDS011;57229;51.432;-2.598;2022-11-15T11:47:09;3.42;;;2.42;;
56255;SDS011;57229;51.432;-2.598;2022-11-15T11:49:43;3.42;;;2.28;;
56255;SDS011;57229;51.432;-2.598;2022-11-15T11:55:02;2.72;;;2.50;;
56255;SDS011;57229;51.432;-2.598;2022-11-15T11:58:02;4.68;;;2.28;;
56255;SDS011;57229;51.432;-2.598;2022-11-15T12:00:41;3.58;;;2.20;;
56255;SDS011;57229;51.432;-2.598;2022-11-15T12:03:21;3.22;;;2.25;;
56255;SDS011;57229;51.432;-2.598;2022-11-15T12:06:02;3.03;;;2.15;;
56255;SDS011;57229;51.432;-2.598;2022-11-15T12:14:36;5.00;;;2.20;;
56255;SDS011;57229;51.432;-2.598;2022-11-15T12:17:16;4.82;;;2.33;;
56255;SDS011;57229;51.432;-2.598;2022-11-15T12:19:46;3.00;;;2.15;;
56255;SDS011;57229;51.432;-2.598;2022-11-15T12:22:16;4.78;;;2.25;;
56255;SDS011;57229;51.432;-2.598;2022-11-15T12:25:08;2.92;;;2.20;;
56255;SDS011;57229;51.432;-2.598;2022-11-15T12:27:50;3.05;;;2.30;;
56255;SDS011;57229;51.432;-2.598;2022-11-15T12:30:37;6.40;;;1.83;;
56255;SDS011;57229;51.432;-2.598;2022-11-15T12:33:27;6.45;;;2.08;;
56255;SDS011;57229;51.432;-2.598;2022-11-15T12:36:02;7.57;;;2.30;;
56255;SDS011;57229;51.432;-2.598;2022-11-15T12:41:26;11.02;;;2.30;;
56255;SDS011;57229;51.432;-2.598;2022-11-15T12:43:53;3.53;;;2.17;;
56255;SDS011;57229;51.432;-2.598;2022-11-15T13:02:28;3.13;;;2.10;;
56255;SDS011;57229;51.432;-2.598;2022-11-15T13:22:49;3.20;;;2.30;;
56255;SDS011;57229;51.432;-2.598;2022-11-15T13:28:17;3.55;;;2.15;;
56255;SDS011;57229;51.432;-2.598;2022-11-15T13:33:36;4.28;;;2.40;;
56255;SDS011;57229;51.432;-2.598;2022-11-15T13:36:09;5.47;;;2.45;;
56255;SDS011;57229;51.432;-2.598;2022-11-15T13:38:59;3.70;;;2.22;;
56255;SDS011;57229;51.432;-2.598;2022-11-15T13:41:33;5.40;;;2.55;;
56255;SDS011;57229;51.432;-2.598;2022-11-15T13:44:01;4.00;;;2.33;;
56255;SDS011;57229;51.432;-2.598;2022-11-15T13:46:29;3.72;;;2.00;;
56255;SDS011;57229;51.432;-2.598;2022-11-15T13:49:00;3.88;;;2.00;;
56255;SDS011;57229;51.432;-2.598;2022-11-15T13:54:02;6.10;;;2.20;;
56255;SDS011;57229;51.432;-2.598;2022-11-15T13:56:29;2.97;;;2.08;;
56255;SDS011;57229;51.432;-2.598;2022-11-15T13:58:58;3.35;;;2.22;;
56255;SDS011;57229;51.432;-2.598;2022-11-15T14:01:25;4.05;;;2.10;;
56255;SDS011;57229;51.432;-2.598;2022-11-15T14:03:59;3.67;;;2.42;;
56255;SDS011;57229;51.432;-2.598;2022-11-15T14:06:27;5.05;;;2.00;;
56255;SDS011;57229;51.432;-2.598;2022-11-15T14:11:34;3.03;;;2.08;;
56255;SDS011;57229;51.432;-2.598;2022-11-15T14:16:36;6.03;;;2.42;;
56255;SDS011;57229;51.432;-2.598;2022-11-15T14:19:04;2.88;;;2.25;;
56255;SDS011;57229;51.432;-2.598;2022-11-15T14:21:31;3.90;;;2.58;;
56255;SDS011;57229;51.432;-2.598;2022-11-15T14:24:19;3.60;;;2.10;;
56255;SDS011;57229;51.432;-2.598;2022-11-15T14:26:44;4.25;;;2.25;;
56255;SDS011;57229;51.432;-2.598;2022-11-15T14:29:23;4.55;;;2.20;;
56255;SDS011;57229;51.432;-2.598;2022-11-15T14:39:51;3.78;;;2.13;;
56255;SDS011;57229;51.432;-2.598;2022-11-15T14:42:17;2.13;;;1.92;;
56255;SDS011;57229;51.432;-2.598;2022-11-15T14:44:43;2.33;;;2.13;;
56255;SDS011;57229;51.432;-2.598;2022-11-15T14:47:09;3.33;;;2.03;;
56255;SDS011;57229;51.432;-2.598;2022-11-15T14:49:35;2.97;;;1.92;;
56255;SDS011;57229;51.432;-2.598;2022-11-15T14:52:01;4.00;;;1.92;;
56255;SDS011;57229;51.432;-2.598;2022-11-15T14:54:26;2.97;;;2.00;;
56255;SDS011;57229;51.432;-2.598;2022-11-15T14:56:52;2.65;;;2.00;;
56255;SDS011;57229;51.432;-2.598;2022-11-15T14:59:18;2.38;;;2.00;;
56255;SDS011;57229;51.432;-2.598;2022-11-15T15:01:43;3.45;;;2.03;;
56255;SDS011;57229;51.432;-2.598;2022-11-15T15:04:10;3.40;;;1.90;;
56255;SDS011;57229;51.432;-2.598;2022-11-15T15:06:36;2.65;;;2.00;;
56255;SDS011;57229;51.432;-2.598;2022-11-15T15:09:02;3.20;;;2.00;;
56255;SDS011;57229;51.432;-2.598;2022-11-15T15:11:28;3.80;;;2.38;;
56255;SDS011;57229;51.432;-2.598;2022-11-15T15:13:56;2.30;;;1.95;;
56255;SDS011;57229;51.432;-2.598;2022-11-15T15:16:24;2.20;;;1.98;;
56255;SDS011;57229;51.432;-2.598;2022-11-15T15:18:50;3.50;;;2.35;;
56255;SDS011;57229;51.432;-2.598;2022-11-15T15:23:46;2.47;;;1.90;;
56255;SDS011;57229;51.432;-2.598;2022-11-15T15:26:12;2.70;;;2.30;;
56255;SDS011;57229;51.432;-2.598;2022-11-15T15:28:37;4.28;;;2.17;;
56255;SDS011;57229;51.432;-2.598;2022-11-15T15:31:04;3.80;;;1.88;;
56255;SDS011;57229;51.432;-2.598;2022-11-15T15:33:30;5.53;;;2.13;;
56255;SDS011;57229;51.432;-2.598;2022-11-15T15:35:56;2.92;;;2.20;;
56255;SDS011;57229;51.432;-2.598;2022-11-15T15:38:22;3.83;;;2.28;;
56255;SDS011;57229;51.432;-2.598;2022-11-15T15:40:48;3.45;;;2.00;;
56255;SDS011;57229;51.432;-2.598;2022-11-15T15:43:13;2.22;;;1.90;;
56255;SDS011;57229;51.432;-2.598;2022-11-15T15:45:40;2.70;;;1.70;;
56255;SDS011;57229;51.432;-2.598;2022-11-15T15:48:13;4.68;;;2.10;;
56255;SDS011;57229;51.432;-2.598;2022-11-15T15:50:40;3.78;;;1.90;;
56255;SDS011;57229;51.432;-2.598;2022-11-15T15:53:08;2.97;;;2.10;;
56255;SDS011;57229;51.432;-2.598;2022-11-15T15:55:35;3.38;;;1.80;;
56255;SDS011;57229;51.432;-2.598;2022-11-15T15:58:01;4.90;;;2.15;;
56255;SDS011;57229;51.432;-2.598;2022-11-15T16:00:28;4.35;;;2.13;;
56255;SDS011;57229;51.432;-2.598;2022-11-15T16:02:54;4.40;;;2.00;;
56255;SDS011;57229;51.432;-2.598;2022-11-15T16:05:20;2.47;;;1.90;;
56255;SDS011;57229;51.432;-2.598;2022-11-15T16:07:47;10.13;;;2.40;;
56255;SDS011;57229;51.432;-2.598;2022-11-15T16:10:23;18.48;;;3.28;;
56255;SDS011;57229;51.432;-2.598;2022-11-15T16:12:56;5.28;;;2.20;;
56255;SDS011;57229;51.432;-2.598;2022-11-15T16:15:23;7.15;;;2.30;;
56255;SDS011;57229;51.432;-2.598;2022-11-15T16:17:51;6.38;;;2.10;;
56255;SDS011;57229;51.432;-2.598;2022-11-15T16:20:30;5.15;;;2.00;;
56255;SDS011;57229;51.432;-2.598;2022-11-15T16:22:59;7.43;;;2.25;;
56255;SDS011;57229;51.432;-2.598;2022-11-15T16:25:26;9.77;;;2.38;;
56255;SDS011;57229;51.432;-2.598;2022-11-15T16:27:52;6.22;;;2.13;;
56255;SDS011;57229;51.432;-2.598;2022-11-15T16:30:19;6.80;;;1.70;;
56255;SDS011;57229;51.432;-2.598;2022-11-15T16:32:46;4.68;;;1.60;;
56255;SDS011;57229;51.432;-2.598;2022-11-15T16:35:12;5.07;;;1.95;;
56255;SDS011;57229;51.432;-2.598;2022-11-15T16:37:38;3.50;;;1.75;;
56255;SDS011;57229;51.432;-2.598;2022-11-15T16:40:27;6.30;;;1.73;;
56255;SDS011;57229;51.432;-2.598;2022-11-15T16:42:56;5.47;;;1.88;;
56255;SDS011;57229;51.432;-2.598;2022-11-15T16:45:24;3.50;;;1.80;;
56255;SDS011;57229;51.432;-2.598;2022-11-15T16:47:50;7.35;;;1.50;;
56255;SDS011;57229;51.432;-2.598;2022-11-15T16:50:18;3.80;;;1.83;;
56255;SDS011;57229;51.432;-2.598;2022-11-15T16:52:58;3.75;;;1.60;;
56255;SDS011;57229;51.432;-2.598;2022-11-15T16:55:25;5.72;;;1.67;;
56255;SDS011;57229;51.432;-2.598;2022-11-15T16:57:53;2.58;;;1.95;;
56255;SDS011;57229;51.432;-2.598;2022-11-15T17:00:20;2.83;;;1.92;;
56255;SDS011;57229;51.432;-2.598;2022-11-15T17:02:47;6.75;;;1.90;;
56255;SDS011;57229;51.432;-2.598;2022-11-15T17:05:14;5.20;;;1.90;;
56255;SDS011;57229;51.432;-2.598;2022-11-15T17:07:45;2.97;;;1.88;;
56255;SDS011;57229;51.432;-2.598;2022-11-15T17:10:33;2.35;;;1.70;;
56255;SDS011;57229;51.432;-2.598;2022-11-15T17:13:13;3.40;;;1.70;;
56255;SDS011;57229;51.432;-2.598;2022-11-15T17:15:41;2.47;;;1.70;;
56255;SDS011;57229;51.432;-2.598;2022-11-15T17:18:14;2.83;;;1.95;;
56255;SDS011;57229;51.432;-2.598;2022-11-15T17:20:53;5.07;;;2.00;;
56255;SDS011;57229;51.432;-2.598;2022-11-15T17:23:27;2.47;;;1.70;;
56255;SDS011;57229;51.432;-2.598;2022-11-15T17:26:16;3.55;;;1.60;;
56255;SDS011;57229;51.432;-2.598;2022-11-15T17:28:53;3.60;;;1.85;;
56255;SDS011;57229;51.432;-2.598;2022-11-15T17:31:21;5.45;;;1.95;;
56255;SDS011;57229;51.432;-2.598;2022-11-15T17:33:51;5.47;;;1.95;;
56255;SDS011;57229;51.432;-2.598;2022-11-15T17:36:18;4.22;;;1.77;;